createdAt,value
2022-08-11T00:00:15.298Z,20.90
2022-08-11T00:01:15.266Z,20.91
2022-08-11T00:02:15.561Z,20.91
2022-08-11T00:03:15.372Z,20.90
2022-08-11T00:04:15.261Z,20.91
2022-08-11T00:05:15.233Z,20.91
2022-08-11T00:06:15.220Z,20.91
2022-08-11T00:07:15.224Z,20.93
2022-08-11T00:08:15.206Z,20.91
2022-08-11T00:09:15.188Z,20.91
2022-08-11T00:10:15.205Z,20.91
2022-08-11T00:11:15.168Z,20.90
2022-08-11T00:12:15.173Z,20.88
2022-08-11T00:13:15.169Z,20.87
2022-08-11T00:14:15.149Z,20.85
2022-08-11T00:15:15.122Z,20.87
2022-08-11T00:16:15.124Z,20.82
2022-08-11T00:17:15.132Z,20.81
2022-08-11T00:18:15.105Z,20.76
2022-08-11T00:19:15.084Z,20.71
2022-08-11T00:20:17.994Z,20.69
2022-08-11T00:21:15.062Z,20.69
2022-08-11T00:22:15.071Z,20.68
2022-08-11T00:23:18.224Z,20.71
2022-08-11T00:24:15.123Z,20.71
2022-08-11T00:25:15.022Z,20.69
2022-08-11T00:26:15.043Z,20.69
2022-08-11T00:27:15.039Z,20.72
2022-08-11T00:28:14.998Z,20.68
2022-08-11T00:29:14.980Z,20.63
2022-08-11T00:30:14.984Z,20.58
2022-08-11T00:31:14.965Z,20.56
2022-08-11T00:32:14.974Z,20.54
2022-08-11T00:33:14.940Z,20.54
2022-08-11T00:34:14.932Z,20.56
2022-08-11T00:35:53.848Z,20.57
2022-08-11T00:36:14.923Z,20.60
2022-08-11T00:37:14.912Z,20.58
2022-08-11T00:38:14.891Z,20.58
2022-08-11T00:39:14.926Z,20.57
2022-08-11T00:40:14.877Z,20.58
2022-08-11T00:41:14.856Z,20.58
2022-08-11T00:42:14.864Z,20.58
2022-08-11T00:43:20.795Z,20.57
2022-08-11T00:44:14.832Z,20.57
2022-08-11T00:45:14.810Z,20.53
2022-08-11T00:46:14.825Z,20.51
2022-08-11T00:47:14.814Z,20.48
2022-08-11T00:48:14.790Z,20.46
2022-08-11T00:49:14.789Z,20.44
2022-08-11T00:50:14.764Z,20.41
2022-08-11T00:51:14.752Z,20.44
2022-08-11T00:52:14.759Z,20.44
2022-08-11T00:53:14.747Z,20.46
2022-08-11T00:54:14.723Z,20.50
2022-08-11T00:55:14.728Z,20.51
2022-08-11T00:56:14.705Z,20.54
2022-08-11T00:57:36.903Z,20.56
2022-08-11T00:58:14.693Z,20.57
2022-08-11T00:59:34.068Z,20.56
2022-08-11T01:00:14.667Z,20.53
2022-08-11T01:01:14.683Z,20.48
2022-08-11T01:02:14.670Z,20.42
2022-08-11T01:03:14.651Z,20.37
2022-08-11T01:04:14.621Z,20.37
2022-08-11T01:05:14.609Z,20.37
2022-08-11T01:06:14.599Z,20.34
2022-08-11T01:07:14.610Z,20.34
2022-08-11T01:08:14.582Z,20.33
2022-08-11T01:09:22.499Z,20.31
2022-08-11T01:10:14.565Z,20.30
2022-08-11T01:11:14.549Z,20.26
2022-08-11T01:12:14.563Z,20.27
2022-08-11T01:13:14.519Z,20.26
2022-08-11T01:14:14.517Z,20.25
2022-08-11T01:15:14.507Z,20.27
2022-08-11T01:16:14.501Z,20.30
2022-08-11T01:17:14.496Z,20.27
2022-08-11T01:18:14.487Z,20.25
2022-08-11T01:19:14.460Z,20.25
2022-08-11T01:20:47.389Z,20.23
2022-08-11T01:21:14.453Z,20.22
2022-08-11T01:22:14.493Z,20.25
2022-08-11T01:23:15.781Z,20.23
2022-08-11T01:24:14.414Z,20.25
2022-08-11T01:25:14.442Z,20.25
2022-08-11T01:26:14.396Z,20.25
2022-08-11T01:27:19.117Z,20.26
2022-08-11T01:28:14.382Z,20.27
2022-08-11T01:29:14.368Z,20.33
2022-08-11T01:30:14.353Z,20.31
2022-08-11T01:31:14.335Z,20.31
2022-08-11T01:32:14.368Z,20.30
2022-08-11T01:33:14.315Z,20.25
2022-08-11T01:34:14.311Z,20.13
2022-08-11T01:35:14.310Z,20.08
2022-08-11T01:36:14.333Z,20.04
2022-08-11T01:37:14.270Z,20.04
2022-08-11T01:38:14.284Z,20.02
2022-08-11T01:39:17.947Z,20.04
2022-08-11T01:40:14.251Z,20.07
2022-08-11T01:41:14.233Z,20.10
2022-08-11T01:42:14.227Z,20.12
2022-08-11T01:43:14.241Z,20.13
2022-08-11T01:44:14.213Z,20.15
2022-08-11T01:45:14.226Z,20.10
2022-08-11T01:46:14.192Z,20.07
2022-08-11T01:47:14.170Z,20.04
2022-08-11T01:48:14.182Z,19.98
2022-08-11T01:50:06.828Z,19.95
2022-08-11T01:50:14.681Z,19.94
2022-08-11T01:51:17.241Z,19.90
2022-08-11T01:52:14.155Z,19.86
2022-08-11T01:53:14.131Z,19.90
2022-08-11T01:54:14.125Z,19.86
2022-08-11T01:55:14.088Z,19.85
2022-08-11T01:56:14.084Z,19.87
2022-08-11T01:57:14.067Z,19.85
2022-08-11T01:58:14.088Z,19.83
2022-08-11T01:59:14.108Z,19.85
2022-08-11T02:00:14.045Z,19.83
2022-08-11T02:01:14.074Z,19.85
2022-08-11T02:02:17.763Z,19.83
2022-08-11T02:03:14.032Z,19.86
2022-08-11T02:04:14.002Z,19.85
2022-08-11T02:05:13.984Z,19.85
2022-08-11T02:06:13.984Z,19.82
2022-08-11T02:07:13.964Z,19.79
2022-08-11T02:08:14.003Z,19.83
2022-08-11T02:09:13.945Z,19.85
2022-08-11T02:10:13.962Z,19.85
2022-08-11T02:11:14.118Z,19.89
2022-08-11T02:12:13.951Z,19.92
2022-08-11T02:13:13.900Z,19.90
2022-08-11T02:14:13.903Z,19.90
2022-08-11T02:15:13.935Z,19.94
2022-08-11T02:16:13.884Z,19.92
2022-08-11T02:17:13.875Z,19.92
2022-08-11T02:18:13.891Z,19.92
2022-08-11T02:19:13.840Z,19.95
2022-08-11T02:20:13.838Z,19.97
2022-08-11T02:21:13.855Z,20.00
2022-08-11T02:22:13.863Z,20.00
2022-08-11T02:23:13.817Z,20.04
2022-08-11T02:24:13.808Z,20.07
2022-08-11T02:25:13.776Z,20.07
2022-08-11T02:26:13.767Z,20.04
2022-08-11T02:27:13.775Z,20.02
2022-08-11T02:28:13.794Z,20.01
2022-08-11T02:29:13.733Z,19.98
2022-08-11T02:30:13.725Z,20.00
2022-08-11T02:32:10.980Z,20.01
2022-08-11T02:32:31.229Z,20.00
2022-08-11T02:33:13.704Z,19.97
2022-08-11T02:34:13.737Z,19.97
2022-08-11T02:35:13.671Z,19.95
2022-08-11T02:36:13.671Z,19.92
2022-08-11T02:37:13.674Z,19.90
2022-08-11T02:38:13.664Z,19.89
2022-08-11T02:39:13.668Z,19.92
2022-08-11T02:40:13.621Z,19.89
2022-08-11T02:41:13.609Z,19.86
2022-08-11T02:42:35.255Z,19.85
2022-08-11T02:43:13.597Z,19.85
2022-08-11T02:44:13.579Z,19.83
2022-08-11T02:45:13.564Z,19.82
2022-08-11T02:46:18.073Z,19.80
2022-08-11T02:47:13.578Z,19.80
2022-08-11T02:48:13.543Z,19.80
2022-08-11T02:49:13.525Z,19.80
2022-08-11T02:50:13.518Z,19.79
2022-08-11T02:51:13.573Z,19.78
2022-08-11T02:52:13.517Z,19.75
2022-08-11T02:53:13.490Z,19.71
2022-08-11T02:54:13.483Z,19.71
2022-08-11T02:55:13.461Z,19.71
2022-08-11T02:56:13.462Z,19.71
2022-08-11T02:57:13.482Z,19.71
2022-08-11T02:58:13.438Z,19.76
2022-08-11T02:59:13.418Z,19.78
2022-08-11T03:00:13.428Z,19.80
2022-08-11T03:01:13.469Z,19.79
2022-08-11T03:02:13.519Z,19.78
2022-08-11T03:03:13.384Z,19.76
2022-08-11T03:04:13.385Z,19.76
2022-08-11T03:05:13.359Z,19.76
2022-08-11T03:06:13.357Z,19.76
2022-08-11T03:07:28.669Z,19.76
2022-08-11T03:08:13.344Z,19.78
2022-08-11T03:09:13.322Z,19.79
2022-08-11T03:10:13.319Z,19.79
2022-08-11T03:11:13.300Z,19.79
2022-08-11T03:12:13.305Z,19.79
2022-08-11T03:13:14.194Z,19.78
2022-08-11T03:14:13.290Z,19.78
2022-08-11T03:15:13.261Z,19.76
2022-08-11T03:16:13.245Z,19.75
2022-08-11T03:17:13.247Z,19.72
2022-08-11T03:18:13.185Z,19.70
2022-08-11T03:19:13.167Z,19.71
2022-08-11T03:20:13.155Z,19.71
2022-08-11T03:21:13.142Z,19.68
2022-08-11T03:22:13.146Z,19.70
2022-08-11T03:23:19.904Z,19.64
2022-08-11T03:24:13.120Z,19.64
2022-08-11T03:25:13.254Z,19.58
2022-08-11T03:26:13.112Z,19.55
2022-08-11T03:27:13.089Z,19.53
2022-08-11T03:28:13.069Z,19.52
2022-08-11T03:29:13.054Z,19.47
2022-08-11T03:30:13.092Z,19.45
2022-08-11T03:31:13.038Z,19.43
2022-08-11T03:32:13.034Z,19.42
2022-08-11T03:33:13.044Z,19.42
2022-08-11T03:34:13.007Z,19.39
2022-08-11T03:35:20.085Z,19.38
2022-08-11T03:36:13.023Z,19.39
2022-08-11T03:37:16.425Z,19.38
2022-08-11T03:38:12.969Z,19.40
2022-08-11T03:39:13.001Z,19.39
2022-08-11T03:40:12.945Z,19.42
2022-08-11T03:41:50.458Z,19.39
2022-08-11T03:42:12.942Z,19.39
2022-08-11T03:43:12.920Z,19.42
2022-08-11T03:44:12.917Z,19.42
2022-08-11T03:45:12.894Z,19.40
2022-08-11T03:46:12.891Z,19.40
2022-08-11T03:47:12.893Z,19.38
2022-08-11T03:48:12.856Z,19.32
2022-08-11T03:49:12.886Z,19.31
2022-08-11T03:50:12.837Z,19.30
2022-08-11T03:51:12.833Z,19.28
2022-08-11T03:52:12.835Z,19.28
2022-08-11T03:53:12.823Z,19.28
2022-08-11T03:54:18.842Z,19.27
2022-08-11T03:55:17.315Z,19.28
2022-08-11T03:56:15.469Z,19.30
2022-08-11T03:57:12.795Z,19.28
2022-08-11T03:58:12.756Z,19.28
2022-08-11T03:59:12.757Z,19.28
2022-08-11T04:00:12.736Z,19.27
2022-08-11T04:01:12.761Z,19.31
2022-08-11T04:02:12.727Z,19.30
2022-08-11T04:03:12.706Z,19.31
2022-08-11T04:04:12.693Z,19.28
2022-08-11T04:05:12.685Z,19.30
2022-08-11T04:06:12.673Z,19.31
2022-08-11T04:07:17.494Z,19.34
2022-08-11T04:08:12.655Z,19.32
2022-08-11T04:09:13.331Z,19.35
2022-08-11T04:10:12.638Z,19.39
2022-08-11T04:11:12.626Z,19.40
2022-08-11T04:12:14.858Z,19.39
2022-08-11T04:13:12.609Z,19.30
2022-08-11T04:14:12.585Z,19.28
2022-08-11T04:15:12.583Z,19.25
2022-08-11T04:16:13.003Z,19.27
2022-08-11T04:17:12.579Z,19.30
2022-08-11T04:18:12.571Z,19.32
2022-08-11T04:19:12.565Z,19.31
2022-08-11T04:20:12.526Z,19.30
2022-08-11T04:21:12.520Z,19.31
2022-08-11T04:22:12.521Z,19.32
2022-08-11T04:23:12.503Z,19.34
2022-08-11T04:24:39.707Z,19.34
2022-08-11T04:25:12.511Z,19.38
2022-08-11T04:26:16.119Z,19.39
2022-08-11T04:27:14.424Z,19.38
2022-08-11T04:28:28.576Z,19.35
2022-08-11T04:29:12.438Z,19.39
2022-08-11T04:30:12.465Z,19.39
2022-08-11T04:31:12.421Z,19.35
2022-08-11T04:32:12.478Z,19.31
2022-08-11T04:33:12.395Z,19.34
2022-08-11T04:34:12.399Z,19.34
2022-08-11T04:35:12.387Z,19.38
2022-08-11T04:36:12.370Z,19.40
2022-08-11T04:37:12.384Z,19.42
2022-08-11T04:38:12.349Z,19.43
2022-08-11T04:39:12.403Z,19.40
2022-08-11T04:40:12.318Z,19.42
2022-08-11T04:41:12.324Z,19.39
2022-08-11T04:42:12.310Z,19.28
2022-08-11T04:43:12.332Z,19.28
2022-08-11T04:44:12.276Z,19.20
2022-08-11T04:45:12.273Z,19.16
2022-08-11T04:46:12.255Z,19.15
2022-08-11T04:47:12.275Z,19.09
2022-08-11T04:48:12.256Z,19.01
2022-08-11T04:49:12.247Z,18.99
2022-08-11T04:50:12.234Z,18.99
2022-08-11T04:51:17.222Z,19.02
2022-08-11T04:52:12.248Z,19.09
2022-08-11T04:53:12.191Z,19.09
2022-08-11T04:54:12.178Z,19.07
2022-08-11T04:55:12.174Z,19.10
2022-08-11T04:56:12.157Z,19.12
2022-08-11T04:57:12.187Z,19.13
2022-08-11T04:58:12.131Z,19.17
2022-08-11T04:59:12.153Z,19.17
2022-08-11T05:00:12.111Z,19.23
2022-08-11T05:01:12.190Z,19.28
2022-08-11T05:02:17.013Z,19.28
2022-08-11T05:03:12.106Z,19.31
2022-08-11T05:04:12.065Z,19.38
2022-08-11T05:05:12.073Z,19.40
2022-08-11T05:06:12.045Z,19.43
2022-08-11T05:07:12.062Z,19.43
2022-08-11T05:08:12.027Z,19.46
2022-08-11T05:09:12.017Z,19.52
2022-08-11T05:10:12.006Z,19.57
2022-08-11T05:11:12.013Z,19.60
2022-08-11T05:12:12.010Z,19.61
2022-08-11T05:13:11.976Z,19.65
2022-08-11T05:14:11.986Z,19.70
2022-08-11T05:15:11.974Z,19.72
2022-08-11T05:16:11.945Z,19.76
2022-08-11T05:17:11.960Z,19.80
2022-08-11T05:18:11.931Z,19.80
2022-08-11T05:19:11.923Z,19.82
2022-08-11T05:20:11.945Z,19.82
2022-08-11T05:21:11.920Z,19.80
2022-08-11T05:22:11.905Z,19.85
2022-08-11T05:23:11.905Z,19.86
2022-08-11T05:24:11.874Z,19.87
2022-08-11T05:25:11.858Z,19.90
2022-08-11T05:26:46.736Z,19.89
2022-08-11T05:27:13.970Z,19.95
2022-08-11T05:28:11.837Z,19.97
2022-08-11T05:29:20.248Z,20.01
2022-08-11T05:30:11.798Z,20.04
2022-08-11T05:31:11.796Z,20.08
2022-08-11T05:32:11.932Z,20.13
2022-08-11T05:33:11.773Z,20.13
2022-08-11T05:34:11.773Z,20.17
2022-08-11T05:36:00.919Z,20.15
2022-08-11T05:36:11.743Z,20.15
2022-08-11T05:37:26.155Z,20.16
2022-08-11T05:38:11.724Z,20.17
2022-08-11T05:39:11.796Z,20.17
2022-08-11T05:40:11.818Z,20.20
2022-08-11T05:41:11.703Z,20.23
2022-08-11T05:42:11.694Z,20.26
2022-08-11T05:43:11.675Z,20.30
2022-08-11T05:44:20.358Z,20.31
2022-08-11T05:45:15.440Z,20.33
2022-08-11T05:46:13.265Z,20.31
2022-08-11T05:47:11.651Z,20.31
2022-08-11T05:48:11.640Z,20.34
2022-08-11T05:49:11.610Z,20.33
2022-08-11T05:50:13.686Z,20.31
2022-08-11T05:51:11.783Z,20.35
2022-08-11T05:52:16.343Z,20.34
2022-08-11T05:53:12.107Z,20.33
2022-08-11T05:54:28.169Z,20.35
2022-08-11T05:55:11.549Z,20.35
2022-08-11T05:56:11.568Z,20.38
2022-08-11T05:57:43.877Z,20.38
2022-08-11T05:58:11.541Z,20.38
2022-08-11T05:59:11.521Z,20.41
2022-08-11T06:00:11.522Z,20.42
2022-08-11T06:01:11.555Z,20.46
2022-08-11T06:02:11.507Z,20.50
2022-08-11T06:03:11.464Z,20.51
2022-08-11T06:04:11.443Z,20.58
2022-08-11T06:05:11.443Z,20.61
2022-08-11T06:06:11.424Z,20.64
2022-08-11T06:07:11.465Z,20.68
2022-08-11T06:08:11.414Z,20.71
2022-08-11T06:09:11.405Z,20.76
2022-08-11T06:10:11.385Z,20.78
2022-08-11T06:11:11.468Z,20.82
2022-08-11T06:12:11.459Z,20.85
2022-08-11T06:13:11.376Z,20.90
2022-08-11T06:14:11.438Z,20.91
2022-08-11T06:15:11.344Z,20.96
2022-08-11T06:16:11.323Z,20.93
2022-08-11T06:17:11.341Z,20.94
2022-08-11T06:18:11.304Z,20.91
2022-08-11T06:19:11.295Z,20.88
2022-08-11T06:20:11.326Z,20.91
2022-08-11T06:21:11.326Z,20.91
2022-08-11T06:22:11.259Z,20.91
2022-08-11T06:23:11.322Z,20.87
2022-08-11T06:24:11.286Z,20.83
2022-08-11T06:25:11.233Z,20.87
2022-08-11T06:26:11.230Z,20.90
2022-08-11T06:27:13.069Z,20.96
2022-08-11T06:28:11.194Z,21.01
2022-08-11T06:29:11.193Z,20.98
2022-08-11T06:30:11.187Z,21.01
2022-08-11T06:31:11.184Z,21.03
2022-08-11T06:32:11.157Z,21.05
2022-08-11T06:33:11.157Z,21.09
2022-08-11T06:34:11.145Z,21.09
2022-08-11T06:35:11.174Z,21.05
2022-08-11T06:36:11.118Z,21.06
2022-08-11T06:37:11.119Z,21.08
2022-08-11T06:38:11.104Z,21.12
2022-08-11T06:39:11.159Z,21.15
2022-08-11T06:40:11.107Z,21.18
2022-08-11T06:41:11.065Z,21.22
2022-08-11T06:42:11.053Z,21.26
2022-08-11T06:43:11.049Z,21.28
2022-08-11T06:44:11.066Z,21.31
2022-08-11T06:45:11.036Z,21.34
2022-08-11T06:46:11.008Z,21.38
2022-08-11T06:47:11.017Z,21.42
2022-08-11T06:48:11.021Z,21.46
2022-08-11T06:49:10.981Z,21.51
2022-08-11T06:50:11.020Z,21.53
2022-08-11T06:51:10.983Z,21.56
2022-08-11T06:52:34.137Z,21.56
2022-08-11T06:53:10.962Z,21.52
2022-08-11T06:54:10.945Z,21.53
2022-08-11T06:55:56.618Z,21.56
2022-08-11T06:56:10.908Z,21.63
2022-08-11T06:57:29.738Z,21.70
2022-08-11T06:58:11.042Z,21.75
2022-08-11T06:59:10.910Z,21.81
2022-08-11T07:00:10.878Z,21.90
2022-08-11T07:01:10.926Z,21.99
2022-08-11T07:02:10.884Z,22.04
2022-08-11T07:03:11.077Z,22.11
2022-08-11T07:04:10.828Z,22.17
2022-08-11T07:05:10.855Z,22.20
2022-08-11T07:06:10.902Z,22.27
2022-08-11T07:07:10.809Z,22.30
2022-08-11T07:08:34.879Z,22.31
2022-08-11T07:09:10.840Z,22.38
2022-08-11T07:10:10.819Z,22.44
2022-08-11T07:11:10.870Z,22.46
2022-08-11T07:12:10.756Z,22.54
2022-08-11T07:13:10.995Z,22.56
2022-08-11T07:14:10.767Z,22.57
2022-08-11T07:15:10.717Z,22.59
2022-08-11T07:16:13.872Z,22.64
2022-08-11T07:17:10.696Z,22.70
2022-08-11T07:18:10.742Z,22.74
2022-08-11T07:19:10.732Z,22.79
2022-08-11T07:20:10.691Z,22.84
2022-08-11T07:22:00.297Z,22.88
2022-08-11T07:22:10.652Z,22.93
2022-08-11T07:23:10.677Z,22.97
2022-08-11T07:24:10.754Z,23.03
2022-08-11T07:25:10.630Z,23.12
2022-08-11T07:26:10.789Z,23.18
2022-08-11T07:27:10.601Z,23.22
2022-08-11T07:28:10.586Z,23.26
2022-08-11T07:29:10.809Z,23.35
2022-08-11T07:30:10.590Z,23.44
2022-08-11T07:31:10.550Z,23.50
2022-08-11T07:32:10.531Z,23.60
2022-08-11T07:33:10.523Z,23.68
2022-08-11T07:34:15.867Z,23.79
2022-08-11T07:35:10.529Z,23.84
2022-08-11T07:36:10.505Z,23.92
2022-08-11T07:37:10.487Z,23.97
2022-08-11T07:38:10.469Z,24.05
2022-08-11T07:39:10.512Z,24.15
2022-08-11T07:40:10.500Z,24.26
2022-08-11T07:41:10.451Z,24.39
2022-08-11T07:42:10.434Z,24.52
2022-08-11T07:43:10.437Z,24.66
2022-08-11T07:44:10.412Z,24.77
2022-08-11T07:45:10.458Z,24.92
2022-08-11T07:46:10.423Z,25.16
2022-08-11T07:47:10.382Z,25.44
2022-08-11T07:48:10.367Z,25.90
2022-08-11T07:49:10.376Z,26.42
2022-08-11T07:50:10.362Z,26.98
2022-08-11T07:51:10.353Z,27.58
2022-08-11T07:52:10.336Z,28.23
2022-08-11T07:53:10.333Z,28.87
2022-08-11T07:54:17.062Z,29.42
2022-08-11T07:55:10.479Z,29.94
2022-08-11T07:56:10.292Z,30.29
2022-08-11T07:57:46.063Z,30.75
2022-08-11T07:58:20.198Z,31.18
2022-08-11T07:59:10.297Z,31.53
2022-08-11T08:00:10.360Z,31.84
2022-08-11T08:01:21.585Z,32.13
2022-08-11T08:02:10.306Z,32.39
2022-08-11T08:03:10.219Z,32.66
2022-08-11T08:04:10.213Z,32.78
2022-08-11T08:05:10.220Z,32.99
2022-08-11T08:06:28.489Z,33.21
2022-08-11T08:07:10.188Z,33.38
2022-08-11T08:08:10.184Z,33.37
2022-08-11T08:09:10.180Z,33.55
2022-08-11T08:10:14.081Z,33.55
2022-08-11T08:11:10.143Z,33.74
2022-08-11T08:12:10.142Z,33.55
2022-08-11T08:13:10.142Z,33.71
2022-08-11T08:14:10.120Z,33.86
2022-08-11T08:15:10.128Z,34.00
2022-08-11T08:16:10.099Z,34.11
2022-08-11T08:17:10.081Z,34.18
2022-08-11T08:18:25.852Z,34.40
2022-08-11T08:19:10.091Z,34.55
2022-08-11T08:20:10.069Z,34.69
2022-08-11T08:21:10.045Z,34.72
2022-08-11T08:22:34.664Z,34.78
2022-08-11T08:23:10.057Z,34.87
2022-08-11T08:24:10.025Z,34.88
2022-08-11T08:25:10.035Z,34.83
2022-08-11T08:26:13.682Z,34.81
2022-08-11T08:27:09.991Z,34.61
2022-08-11T08:28:09.990Z,34.31
2022-08-11T08:29:09.997Z,33.79
2022-08-11T08:30:09.983Z,33.20
2022-08-11T08:31:09.987Z,33.06
2022-08-11T08:32:09.958Z,32.85
2022-08-11T08:33:09.939Z,32.80
2022-08-11T08:34:09.944Z,32.29
2022-08-11T08:35:09.924Z,31.53
2022-08-11T08:36:09.924Z,30.81
2022-08-11T08:37:15.758Z,30.19
2022-08-11T08:38:09.912Z,29.70
2022-08-11T08:39:09.920Z,29.35
2022-08-11T08:40:09.910Z,29.05
2022-08-11T08:41:09.867Z,28.76
2022-08-11T08:42:09.849Z,28.46
2022-08-11T08:43:09.836Z,28.24
2022-08-11T08:44:36.749Z,28.02
2022-08-11T08:45:09.840Z,27.77
2022-08-11T08:46:09.822Z,27.39
2022-08-11T08:47:09.797Z,27.27
2022-08-11T08:48:09.789Z,27.18
2022-08-11T08:49:09.777Z,27.12
2022-08-11T08:50:09.789Z,27.06
2022-08-11T08:51:11.030Z,27.03
2022-08-11T08:52:27.773Z,27.05
2022-08-11T08:53:09.739Z,27.02
2022-08-11T08:54:09.735Z,27.01
2022-08-11T08:55:09.737Z,26.91
2022-08-11T08:56:09.712Z,26.84
2022-08-11T08:57:09.715Z,26.76
2022-08-11T08:58:09.705Z,26.73
2022-08-11T08:59:09.676Z,26.71
2022-08-11T09:00:12.995Z,26.66
2022-08-11T09:01:09.721Z,26.57
2022-08-11T09:02:09.652Z,26.54
2022-08-11T09:03:38.069Z,26.53
2022-08-11T09:04:12.249Z,26.50
2022-08-11T09:05:09.631Z,26.50
2022-08-11T09:06:09.610Z,26.51
2022-08-11T09:07:09.605Z,26.51
2022-08-11T09:08:09.595Z,26.51
2022-08-11T09:09:09.574Z,26.49
2022-08-11T09:10:09.600Z,26.47
2022-08-11T09:11:13.598Z,26.46
2022-08-11T09:12:09.557Z,26.46
2022-08-11T09:13:09.581Z,26.42
2022-08-11T09:14:14.874Z,26.38
2022-08-11T09:15:09.544Z,26.35
2022-08-11T09:16:09.515Z,26.34
2022-08-11T09:17:09.511Z,26.34
2022-08-11T09:18:09.512Z,26.32
2022-08-11T09:19:09.484Z,26.34
2022-08-11T09:20:09.485Z,26.32
2022-08-11T09:21:09.453Z,26.32
2022-08-11T09:22:09.460Z,26.35
2022-08-11T09:24:16.870Z,26.44
2022-08-11T09:25:09.446Z,26.64
2022-08-11T09:26:09.447Z,26.88
2022-08-11T09:27:09.397Z,27.02
2022-08-11T09:28:09.410Z,27.38
2022-08-11T09:29:09.377Z,27.81
2022-08-11T09:30:09.418Z,28.18
2022-08-11T09:31:09.369Z,28.36
2022-08-11T09:32:09.361Z,28.55
2022-08-11T09:33:09.334Z,28.67
2022-08-11T09:34:09.351Z,28.69
2022-08-11T09:35:09.327Z,28.39
2022-08-11T09:36:09.366Z,28.24
2022-08-11T09:37:09.305Z,28.02
2022-08-11T09:38:09.292Z,27.83
2022-08-11T09:39:09.350Z,27.65
2022-08-11T09:40:09.326Z,27.48
2022-08-11T09:41:09.261Z,27.40
2022-08-11T09:42:11.166Z,27.34
2022-08-11T09:43:09.249Z,27.38
2022-08-11T09:44:09.246Z,27.38
2022-08-11T09:45:09.216Z,27.30
2022-08-11T09:46:09.339Z,27.28
2022-08-11T09:47:09.194Z,27.28
2022-08-11T09:48:09.215Z,27.33
2022-08-11T09:49:09.194Z,27.58
2022-08-11T09:50:09.197Z,27.93
2022-08-11T09:51:09.164Z,28.14
2022-08-11T09:52:09.150Z,27.98
2022-08-11T09:53:36.056Z,27.91
2022-08-11T09:54:09.154Z,27.80
2022-08-11T09:55:09.116Z,27.68
2022-08-11T09:56:09.132Z,27.52
2022-08-11T09:57:09.103Z,27.45
2022-08-11T09:58:09.089Z,27.40
2022-08-11T09:59:09.408Z,27.30
2022-08-11T10:00:09.588Z,27.24
2022-08-11T10:01:09.111Z,27.20
2022-08-11T10:02:09.045Z,27.13
2022-08-11T10:03:09.042Z,26.96
2022-08-11T10:04:09.051Z,26.84
2022-08-11T10:05:09.015Z,26.75
2022-08-11T10:06:09.049Z,26.73
2022-08-11T10:07:08.996Z,26.79
2022-08-11T10:08:09.003Z,26.84
2022-08-11T10:09:09.004Z,26.88
2022-08-11T10:10:08.970Z,26.91
2022-08-11T10:11:08.951Z,26.93
2022-08-11T10:12:08.953Z,26.90
2022-08-11T10:14:31.947Z,26.93
2022-08-11T10:14:44.019Z,26.94
2022-08-11T10:15:08.928Z,26.97
2022-08-11T10:16:15.316Z,26.98
2022-08-11T10:17:08.902Z,27.03
2022-08-11T10:18:08.905Z,27.11
2022-08-11T10:19:08.892Z,27.15
2022-08-11T10:20:08.885Z,27.09
2022-08-11T10:21:08.852Z,27.02
2022-08-11T10:22:08.864Z,26.94
2022-08-11T10:23:08.854Z,26.86
2022-08-11T10:24:08.843Z,26.78
2022-08-11T10:25:08.827Z,26.75
2022-08-11T10:26:08.824Z,26.81
2022-08-11T10:27:08.809Z,26.83
2022-08-11T10:28:28.662Z,26.86
2022-08-11T10:29:13.572Z,26.88
2022-08-11T10:30:08.781Z,26.93
2022-08-11T10:31:12.504Z,26.94
2022-08-11T10:32:08.753Z,27.02
2022-08-11T10:33:08.894Z,27.06
2022-08-11T10:34:08.771Z,27.08
2022-08-11T10:35:08.718Z,27.13
2022-08-11T10:36:16.140Z,27.15
2022-08-11T10:37:08.695Z,27.21
2022-08-11T10:38:10.071Z,27.30
2022-08-11T10:39:08.762Z,27.39
2022-08-11T10:40:08.673Z,27.52
2022-08-11T10:41:08.649Z,27.62
2022-08-11T10:42:12.397Z,27.65
2022-08-11T10:43:08.706Z,27.65
2022-08-11T10:44:08.642Z,27.68
2022-08-11T10:45:08.618Z,27.76
2022-08-11T10:46:08.653Z,27.84
2022-08-11T10:47:08.642Z,27.84
2022-08-11T10:48:13.446Z,27.81
2022-08-11T10:49:09.003Z,27.76
2022-08-11T10:50:08.609Z,27.71
2022-08-11T10:51:08.553Z,27.62
2022-08-11T10:52:08.589Z,27.53
2022-08-11T10:53:08.544Z,27.46
2022-08-11T10:54:11.599Z,27.42
2022-08-11T10:55:08.527Z,27.31
2022-08-11T10:56:08.511Z,27.16
2022-08-11T10:57:08.543Z,27.12
2022-08-11T10:58:08.489Z,27.11
2022-08-11T10:59:08.503Z,27.12
2022-08-11T11:00:08.471Z,27.09
2022-08-11T11:01:08.496Z,27.28
2022-08-11T11:02:08.470Z,27.66
2022-08-11T11:03:23.082Z,28.03
2022-08-11T11:04:08.466Z,28.24
2022-08-11T11:05:08.418Z,28.45
2022-08-11T11:06:27.464Z,28.55
2022-08-11T11:07:08.414Z,28.55
2022-08-11T11:08:08.412Z,28.52
2022-08-11T11:09:08.397Z,28.45
2022-08-11T11:10:08.397Z,28.35
2022-08-11T11:11:08.402Z,28.01
2022-08-11T11:12:08.347Z,27.76
2022-08-11T11:13:08.329Z,27.65
2022-08-11T11:14:08.339Z,27.49
2022-08-11T11:15:08.368Z,27.30
2022-08-11T11:16:08.312Z,27.16
2022-08-11T11:17:08.292Z,27.18
2022-08-11T11:19:18.630Z,27.05
2022-08-11T11:20:34.696Z,26.97
2022-08-11T11:21:19.599Z,27.02
2022-08-11T11:22:19.613Z,27.06
2022-08-11T11:23:19.608Z,27.06
2022-08-11T11:24:19.576Z,27.08
2022-08-11T11:25:19.573Z,27.12
2022-08-11T11:26:27.012Z,27.21
2022-08-11T11:27:19.538Z,27.28
2022-08-11T11:28:19.572Z,27.34
2022-08-11T11:29:19.518Z,27.34
2022-08-11T11:30:19.504Z,27.38
2022-08-11T11:31:19.498Z,27.33
2022-08-11T11:32:19.508Z,27.35
2022-08-11T11:33:19.501Z,27.35
2022-08-11T11:34:20.100Z,27.38
2022-08-11T11:35:19.465Z,27.39
2022-08-11T11:36:19.434Z,27.39
2022-08-11T11:37:19.427Z,27.39
2022-08-11T11:38:19.438Z,27.35
2022-08-11T11:39:19.463Z,27.35
2022-08-11T11:40:19.392Z,27.38
2022-08-11T11:41:19.402Z,27.39
2022-08-11T11:42:19.384Z,27.42
2022-08-11T11:43:19.398Z,27.48
2022-08-11T11:44:19.353Z,27.50
2022-08-11T11:45:19.359Z,27.53
2022-08-11T11:46:19.332Z,27.52
2022-08-11T11:47:21.717Z,27.55
2022-08-11T11:48:19.330Z,27.61
2022-08-11T11:50:19.289Z,27.71
2022-08-11T11:51:19.288Z,27.53
2022-08-11T11:52:19.276Z,27.46
2022-08-11T11:53:19.279Z,27.43
2022-08-11T11:54:19.251Z,27.45
2022-08-11T11:55:19.307Z,27.43
2022-08-11T11:56:19.240Z,27.40
2022-08-11T11:57:19.232Z,27.42
2022-08-11T11:58:19.239Z,27.49
2022-08-11T11:59:19.208Z,27.55
2022-08-11T12:00:19.191Z,27.58
2022-08-11T12:01:19.187Z,27.69
2022-08-11T12:02:19.186Z,27.71
2022-08-11T12:03:19.212Z,27.71
2022-08-11T12:04:19.164Z,27.68
2022-08-11T12:05:19.155Z,27.63
2022-08-11T12:06:19.129Z,27.59
2022-08-11T12:07:19.126Z,27.63
2022-08-11T12:08:19.176Z,27.68
2022-08-11T12:09:19.115Z,27.66
2022-08-11T12:10:19.088Z,27.62
2022-08-11T12:11:19.082Z,27.61
2022-08-11T12:12:19.076Z,27.61
2022-08-11T12:13:19.075Z,27.65
2022-08-11T12:14:19.047Z,27.63
2022-08-11T12:16:04.258Z,27.58
2022-08-11T12:16:37.084Z,27.61
2022-08-11T12:17:19.025Z,27.62
2022-08-11T12:18:19.029Z,27.66
2022-08-11T12:19:19.009Z,27.69
2022-08-11T12:20:32.089Z,27.68
2022-08-11T12:21:18.990Z,27.69
2022-08-11T12:22:18.968Z,27.69
2022-08-11T12:23:18.995Z,27.71
2022-08-11T12:24:18.949Z,27.69
2022-08-11T12:25:18.965Z,27.68
2022-08-11T12:26:26.812Z,27.78
2022-08-11T12:27:18.944Z,27.90
2022-08-11T12:28:18.913Z,27.86
2022-08-11T12:29:18.900Z,27.87
2022-08-11T12:30:18.888Z,27.90
2022-08-11T12:31:18.878Z,27.90
2022-08-11T12:32:18.875Z,27.88
2022-08-11T12:33:24.046Z,27.84
2022-08-11T12:34:18.859Z,27.84
2022-08-11T12:35:18.831Z,27.93
2022-08-11T12:36:18.824Z,28.14
2022-08-11T12:37:18.837Z,28.48
2022-08-11T12:38:18.804Z,29.00
2022-08-11T12:39:24.322Z,29.45
2022-08-11T12:40:42.864Z,29.85
2022-08-11T12:41:18.939Z,30.00
2022-08-11T12:42:18.774Z,30.00
2022-08-11T12:43:21.072Z,29.97
2022-08-11T12:44:21.098Z,29.92
2022-08-11T12:45:22.099Z,29.92
2022-08-11T12:46:18.729Z,29.92
2022-08-11T12:47:18.726Z,30.16
2022-08-11T12:48:59.371Z,30.44
2022-08-11T12:49:18.694Z,30.68
2022-08-11T12:50:22.814Z,30.79
2022-08-11T12:51:18.698Z,30.67
2022-08-11T12:52:18.674Z,30.53
2022-08-11T12:53:18.660Z,30.36
2022-08-11T12:54:18.640Z,30.37
2022-08-11T12:55:18.636Z,30.75